Dellwood, Georgia
Current Conditions -  °F | °C
As of 5:35 PM on Tuesday 21 Oct 2014 (Local Time) from KSBO Reporting Station
Clear Clear  
Wind Chill: 81°   Ceiling: Unl
Heat Index: 81°   Visibility: 10mi
Dew Point: 52°   Wind: 9mph
Humidity: 37%   Direction: 280°W
Pressure: 29.91"   Gusts: NA
Location:  32.5371°N, 82.3457°W
Report Text: KSBO 212135Z AUTO 28008KT 10SM CLR 27/11 A2991 RMK AO2
Loading
Personal Weather Stations






























Interactive Weather Map
Tropical Storm Tracking
New forecast layout! Learn more

10-Day Weather Forecast

Advertisements
Track Severe Weather on mobile